Katama — WBP4751 — position and weather

sailwx.info

Track history (hours):
 
Tides and Currents Weather Stations Pressure Air Temp Water Temp Dewpoint Dewpoint Depression Visibility Wind Speed Wind Dir Waves Ship Positions

Katama

Owner: WOODS HOLE, MARTHA'S VINEYARD AND NANTUCKET STEAMSHIP AUTHORITY, WOODS HOLE, MA. More information available from US FCC via Universal Licensing System and Coast Guard Vessel Documentation Center.

Last reported at 2017-Jun-23 10:12 UTC. Time now 2017-Jun-24 17:31 UTC.
Position N 41°34' W 070°16'.

Length 66 m; draft 3 m.

Type: Ship. MMSI: 367327330.

Date/timePositionNaut miles runAvg speedWind from/ knotsBaromVisibWave heightAir tempDewpointWater temp
2017-Jun-23 10:12N 41°34' W 070°16'211.5
2017-Jun-23 10:00N 41°36' W 070°17'3 6.1
2017-Jun-23 09:30N 41°39' W 070°17'2 0.1
2017-Jun-21 09:54N 41°37' W 070°17'2 3.1
2017-Jun-21 09:06N 41°39' W 070°17'0 0.0
2017-Jun-21 08:53N 41°39' W 070°17'  
2017-Jun-18 03:45N 41°39' W 070°17'0 0.0
2017-Jun-18 03:30N 41°39' W 070°17'0 0.0
2017-Jun-18 03:00N 41°39' W 070°17'0 0.0
2017-Jun-18 02:30N 41°39' W 070°17'0 0.0
2017-Jun-18 02:00N 41°39' W 070°17'0 0.0
2017-Jun-18 01:30N 41°39' W 070°17'0 0.0
2017-Jun-18 01:00N 41°39' W 070°17'2 3.5
2017-Jun-18 00:30N 41°37' W 070°17'5 1.5
2017-Jun-17 21:05N 41°32' W 070°15'112.2
2017-Jun-17 21:00N 41°33' W 070°15'5 9.8
2017-Jun-17 20:30N 41°38' W 070°16'1 1.7
2017-Jun-17 20:00N 41°39' W 070°17'2 3.4
2017-Jun-17 19:30N 41°37' W 070°17'6 1.6
2017-Jun-17 15:44N 41°32' W 070°14'312.5
2017-Jun-17 15:30N 41°34' W 070°16'5 9.1
2017-Jun-17 15:00N 41°39' W 070°16'1 0.7
2017-Jun-17 14:00N 41°38' W 070°16'1 0.0
2017-Jun-16 02:49N 41°39' W 070°17'0 0.0
2017-Jun-16 02:29N 41°39' W 070°17'0 0.0
2017-Jun-16 02:00N 41°39' W 070°17'0 0.0
2017-Jun-16 01:30N 41°39' W 070°17'0 1.0
2017-Jun-16 01:00N 41°39' W 070°16'4 1.0
2017-Jun-15 20:57N 41°34' W 070°16'4 9.3
2017-Jun-15 20:30N 41°39' W 070°16'1 1.2
2017-Jun-15 20:00N 41°39' W 070°17'2 3.6
2017-Jun-15 19:30N 41°37' W 070°17'3 0.8
2017-Jun-15 15:32N 41°34' W 070°16'112.3
2017-Jun-15 15:29N 41°35' W 070°16'4 8.4
2017-Jun-15 15:00N 41°39' W 070°16'1 1.0
2017-Jun-15 14:00N 41°38' W 070°16'1 0.1
2017-Jun-15 04:43N 41°39' W 070°17'0 0.0
2017-Jun-15 04:30N 41°39' W 070°17'0 0.0
2017-Jun-15 04:00N 41°39' W 070°17'0 0.0
2017-Jun-15 03:27N 41°39' W 070°17'0 0.0
2017-Jun-15 02:56N 41°39' W 070°17'0 0.0
2017-Jun-15 02:14N 41°39' W 070°17'5 0.5
2017-Jun-14 15:44N 41°34' W 070°16'311.8
2017-Jun-14 15:29N 41°37' W 070°17'2 4.8
2017-Jun-14 15:00N 41°39' W 070°17'0 0.0
2017-Jun-14 14:30N 41°39' W 070°17'9 0.3
2017-Jun-13 13:17N 41°31' W 070°14'612.6
2017-Jun-13 12:50N 41°26' W 070°10'412.6
2017-Jun-13 12:29N 41°22' W 070°08'5 9.7
2017-Jun-13 12:00N 41°17' W 070°06'0 0.5
2017-Jun-13 11:31N 41°17' W 070°05'  
Track history (hours):
 
Tides and Currents Weather Stations Pressure Air Temp Water Temp Dewpoint Dewpoint Depression Visibility Wind Speed Wind Dir Waves Ship Positions

Katama

Owner: WOODS HOLE, MARTHA'S VINEYARD AND NANTUCKET STEAMSHIP AUTHORITY, WOODS HOLE, MA. More information available from US FCC via Universal Licensing System and Coast Guard Vessel Documentation Center.

Last reported at 2017-Jun-23 10:12 UTC. Time now 2017-Jun-24 17:31 UTC.
Position N 41°34' W 070°16'.

Length 66 m; draft 3 m.

Type: Ship. MMSI: 367327330.

Date/timePositionNaut miles runAvg speedWind from/ knotsBaromVisibWave heightAir tempDewpointWater temp
2017-Jun-23 10:12N 41°34' W 070°16'211.5
2017-Jun-23 10:00N 41°36' W 070°17'3 6.1
2017-Jun-23 09:30N 41°39' W 070°17'2 0.1
2017-Jun-21 09:54N 41°37' W 070°17'2 3.1
2017-Jun-21 09:06N 41°39' W 070°17'0 0.0
2017-Jun-21 08:53N 41°39' W 070°17'  
2017-Jun-18 03:45N 41°39' W 070°17'0 0.0
2017-Jun-18 03:30N 41°39' W 070°17'0 0.0
2017-Jun-18 03:00N 41°39' W 070°17'0 0.0
2017-Jun-18 02:30N 41°39' W 070°17'0 0.0
2017-Jun-18 02:00N 41°39' W 070°17'0 0.0
2017-Jun-18 01:30N 41°39' W 070°17'0 0.0
2017-Jun-18 01:00N 41°39' W 070°17'2 3.5
2017-Jun-18 00:30N 41°37' W 070°17'5 1.5
2017-Jun-17 21:05N 41°32' W 070°15'112.2
2017-Jun-17 21:00N 41°33' W 070°15'5 9.8
2017-Jun-17 20:30N 41°38' W 070°16'1 1.7
2017-Jun-17 20:00N 41°39' W 070°17'2 3.4
2017-Jun-17 19:30N 41°37' W 070°17'6 1.6
2017-Jun-17 15:44N 41°32' W 070°14'312.5
2017-Jun-17 15:30N 41°34' W 070°16'5 9.1
2017-Jun-17 15:00N 41°39' W 070°16'1 0.7
2017-Jun-17 14:00N 41°38' W 070°16'1 0.0
2017-Jun-16 02:49N 41°39' W 070°17'0 0.0
2017-Jun-16 02:29N 41°39' W 070°17'0 0.0
2017-Jun-16 02:00N 41°39' W 070°17'0 0.0
2017-Jun-16 01:30N 41°39' W 070°17'0 1.0
2017-Jun-16 01:00N 41°39' W 070°16'4 1.0
2017-Jun-15 20:57N 41°34' W 070°16'4 9.3
2017-Jun-15 20:30N 41°39' W 070°16'1 1.2
2017-Jun-15 20:00N 41°39' W 070°17'2 3.6
2017-Jun-15 19:30N 41°37' W 070°17'3 0.8
2017-Jun-15 15:32N 41°34' W 070°16'112.3
2017-Jun-15 15:29N 41°35' W 070°16'4 8.4
2017-Jun-15 15:00N 41°39' W 070°16'1 1.0
2017-Jun-15 14:00N 41°38' W 070°16'1 0.1
2017-Jun-15 04:43N 41°39' W 070°17'0 0.0
2017-Jun-15 04:30N 41°39' W 070°17'0 0.0
2017-Jun-15 04:00N 41°39' W 070°17'0 0.0
2017-Jun-15 03:27N 41°39' W 070°17'0 0.0
2017-Jun-15 02:56N 41°39' W 070°17'0 0.0
2017-Jun-15 02:14N 41°39' W 070°17'5 0.5
2017-Jun-14 15:44N 41°34' W 070°16'311.8
2017-Jun-14 15:29N 41°37' W 070°17'2 4.8
2017-Jun-14 15:00N 41°39' W 070°17'0 0.0
2017-Jun-14 14:30N 41°39' W 070°17'9 0.3
2017-Jun-13 13:17N 41°31' W 070°14'612.6
2017-Jun-13 12:50N 41°26' W 070°10'412.6
2017-Jun-13 12:29N 41°22' W 070°08'5 9.7
2017-Jun-13 12:00N 41°17' W 070°06'0 0.5
2017-Jun-13 11:31N 41°17' W 070°05'  

Dump ship's entire track history